Time;durP1;ratioP1;P1;durP2;ratioP2;P2;SDS_P1;SDS_P2;PMS_P1;PMS_P2;Temp;Humidity;BMP_temperature;BMP_pressure;BME280_temperature;BME280_humidity;BME280_pressure;Samples;Min_cycle;Max_cycle;Signal;HPM_P1;HPM_P2
2022/01/29 00:02:19;;;;;;;31.00;15.93;;;;;;;4.78;89.11;102886.69;5034378;28;20024;-83
2022/01/29 00:04:45;;;;;;;35.92;19.48;;;;;;;4.85;89.05;102881.78;5034925;28;20056;-82
2022/01/29 00:07:11;;;;;;;34.13;19.73;;;;;;;4.79;89.16;102873.03;5034435;28;20054;-84
2022/01/29 00:09:36;;;;;;;33.13;18.23;;;;;;;4.81;89.28;102869.63;5034962;28;20078;-83
2022/01/29 00:12:02;;;;;;;33.80;18.42;;;;;;;4.82;89.21;102864.53;5034422;28;20022;-83
2022/01/29 00:14:27;;;;;;;30.88;17.50;;;;;;;4.84;88.71;102862.91;5034485;28;20022;-83
2022/01/29 00:16:52;;;;;;;33.20;18.42;;;;;;;4.84;89.10;102869.78;5034076;28;20014;-83
2022/01/29 00:19:18;;;;;;;32.17;18.58;;;;;;;4.86;89.10;102865.53;5035049;28;20068;-83
2022/01/29 00:21:43;;;;;;;32.40;18.35;;;;;;;4.85;89.20;102853.50;5033861;28;20051;-83
2022/01/29 00:24:08;;;;;;;34.47;18.88;;;;;;;4.83;89.28;102852.56;5035210;28;20021;-83
2022/01/29 00:26:34;;;;;;;31.67;17.23;;;;;;;4.86;89.04;102853.56;5034737;28;20017;-83
2022/01/29 00:29:04;;;;;;;35.63;18.92;;;;;;;4.86;89.30;102852.69;5033869;28;20521;-84
2022/01/29 00:31:31;;;;;;;31.48;16.67;;;;;;;4.91;89.19;102846.91;5034897;28;20029;-83
2022/01/29 00:33:56;;;;;;;32.58;17.48;;;;;;;4.93;88.80;102841.84;5034921;28;20160;-83
2022/01/29 00:36:24;;;;;;;33.65;18.17;;;;;;;4.92;89.02;102833.22;5034239;28;20108;-83
2022/01/29 00:38:49;;;;;;;33.15;17.88;;;;;;;4.92;89.30;102837.50;5033916;28;20033;-83
2022/01/29 00:41:15;;;;;;;36.90;20.13;;;;;;;5.02;87.93;102829.34;5034984;28;20389;-83
2022/01/29 00:43:40;;;;;;;32.17;17.95;;;;;;;4.93;88.87;102834.97;5033897;28;20120;-83
2022/01/29 00:46:05;;;;;;;34.00;18.63;;;;;;;4.95;88.55;102835.94;5034439;28;20090;-83
2022/01/29 00:48:30;;;;;;;32.33;18.42;;;;;;;4.94;89.01;102839.31;5034282;28;20037;-84
2022/01/29 00:50:57;;;;;;;29.98;16.75;;;;;;;4.95;89.06;102829.91;5033320;28;20052;-84
2022/01/29 00:53:22;;;;;;;32.10;18.00;;;;;;;4.98;88.98;102834.28;5034602;28;20022;-84
2022/01/29 00:55:48;;;;;;;31.27;17.35;;;;;;;4.95;89.15;102829.91;5034125;28;20032;-83
2022/01/29 00:58:13;;;;;;;30.10;16.35;;;;;;;4.95;89.02;102828.22;5033039;28;20413;-83
2022/01/29 01:00:39;;;;;;;31.92;17.80;;;;;;;4.95;89.33;102812.75;5034293;28;20072;-83
2022/01/29 01:03:04;;;;;;;34.47;19.10;;;;;;;5.03;88.80;102815.66;5033899;28;20103;-83
2022/01/29 01:05:29;;;;;;;32.08;17.17;;;;;;;4.97;89.10;102812.81;5033532;28;20032;-83
2022/01/29 01:07:55;;;;;;;30.02;16.77;;;;;;;4.97;89.31;102799.94;5033920;28;20498;-83
2022/01/29 01:10:20;;;;;;;28.02;15.60;;;;;;;4.98;89.12;102791.41;5033404;28;20025;-82
2022/01/29 01:12:45;;;;;;;32.03;17.35;;;;;;;5.02;89.10;102784.69;5033839;28;20032;-83
2022/01/29 01:15:11;;;;;;;29.27;16.73;;;;;;;4.99;88.99;102782.88;5033864;28;20021;-83
2022/01/29 01:17:36;;;;;;;29.60;16.13;;;;;;;4.98;89.09;102769.97;5033204;28;20080;-83
2022/01/29 01:20:04;;;;;;;31.55;17.35;;;;;;;5.05;88.96;102771.94;5033393;28;20030;-83
2022/01/29 01:22:29;;;;;;;29.27;15.75;;;;;;;5.01;89.43;102770.09;5033361;28;20540;-83
2022/01/29 01:24:55;;;;;;;29.15;16.27;;;;;;;4.99;89.61;102754.56;5032563;28;20025;-83
2022/01/29 01:27:20;;;;;;;31.00;18.60;;;;;;;4.99;89.91;102746.84;5033666;28;20014;-83
2022/01/29 01:29:45;;;;;;;33.75;18.90;;;;;;;4.99;90.39;102740.84;5031961;28;20392;-83
2022/01/29 01:32:11;;;;;;;32.88;19.02;;;;;;;5.01;90.12;102736.63;5032811;28;20025;-83
2022/01/29 01:34:42;;;;;;;32.15;18.80;;;;;;;5.02;89.97;102740.94;5033804;28;20393;-84
2022/01/29 01:37:11;;;;;;;33.83;19.90;;;;;;;5.02;89.97;102740.94;5033798;28;20021;-84
2022/01/29 01:39:39;;;;;;;38.55;21.27;;;;;;;5.13;89.02;102734.50;5032880;28;20026;-83
2022/01/29 01:42:16;;;;;;;33.78;20.10;;;;;;;5.01;89.52;102722.06;5032771;28;20057;-83
2022/01/29 01:44:46;;;;;;;33.15;19.02;;;;;;;5.01;89.70;102740.06;5033473;28;20385;-83
2022/01/29 01:47:13;;;;;;;28.50;16.60;;;;;;;4.99;89.79;102730.56;5032694;28;20508;-83
2022/01/29 01:49:38;;;;;;;33.35;19.13;;;;;;;4.97;90.76;102729.59;5033484;28;20433;-83
2022/01/29 01:52:07;;;;;;;32.05;18.80;;;;;;;4.98;90.55;102723.66;5032774;28;20071;-83
2022/01/29 01:54:33;;;;;;;31.52;18.45;;;;;;;4.99;89.83;102715.13;5032313;28;20535;-83
2022/01/29 01:57:00;;;;;;;32.20;19.10;;;;;;;5.00;90.52;102715.16;5032590;28;20545;-83
2022/01/29 01:59:26;;;;;;;;;;;;;;;4.96;90.68;102713.28;5033495;28;20276;-83
2022/01/29 02:01:51;;;;;;;28.83;16.80;;;;;;;4.95;90.80;102716.69;5032488;28;19913;-83
2022/01/29 02:04:16;;;;;;;30.20;17.48;;;;;;;4.91;90.22;102702.81;5033330;28;20458;-84
2022/01/29 02:06:42;;;;;;;29.42;16.23;;;;;;;4.90;90.86;102700.19;5032361;28;20030;-83
2022/01/29 02:09:08;;;;;;;29.77;17.13;;;;;;;4.89;90.84;102694.19;5032783;28;20390;-83
2022/01/29 02:11:33;;;;;;;29.15;16.48;;;;;;;4.95;90.98;102693.53;5032944;28;20018;-83
2022/01/29 02:14:00;;;;;;;29.10;16.48;;;;;;;4.89;91.10;102701.00;5032024;28;20033;-83
2022/01/29 02:16:31;;;;;;;26.83;15.13;;;;;;;4.88;91.54;102691.53;5016545;28;20040;-83
2022/01/29 02:18:56;;;;;;;29.85;16.73;;;;;;;4.84;92.06;102685.41;5032401;28;20032;-83
2022/01/29 02:21:26;;;;;;;31.58;17.77;;;;;;;4.83;92.32;102688.78;5032330;28;20021;-83
2022/01/29 02:23:51;;;;;;;30.58;17.30;;;;;;;4.79;91.92;102677.50;5032631;28;20026;-83
2022/01/29 02:26:17;;;;;;;26.70;15.30;;;;;;;4.81;91.61;102685.28;5032772;28;20484;-83
2022/01/29 02:28:42;;;;;;;29.08;16.45;;;;;;;4.85;92.52;102679.44;5031726;28;20021;-83
2022/01/29 02:31:07;;;;;;;30.02;17.33;;;;;;;4.83;92.14;102688.78;5032847;28;20067;-84
2022/01/29 02:33:35;;;;;;;28.30;16.38;;;;;;;4.81;92.83;102674.97;5032569;28;20025;-83
2022/01/29 02:36:01;;;;;;;28.60;16.48;;;;;;;4.79;92.72;102674.94;5031780;28;20223;-83
2022/01/29 02:38:27;;;;;;;29.50;17.67;;;;;;;4.79;93.46;102672.34;5032753;28;20104;-82
2022/01/29 02:41:03;;;;;;;29.75;16.92;;;;;;;4.80;93.10;102675.78;5033693;28;20017;-84
2022/01/29 02:43:39;;;;;;;28.33;16.83;;;;;;;4.77;93.24;102674.00;5016701;28;20029;-83
2022/01/29 02:46:18;;;;;;;28.73;16.42;;;;;;;4.79;93.72;102662.06;5016915;28;20034;-83
2022/01/29 02:48:53;;;;;;;27.75;15.07;;;;;;;4.79;92.87;102667.22;5016840;28;20034;-83
2022/01/29 02:51:20;;;;;;;26.33;14.93;;;;;;;4.81;93.36;102666.41;5017265;28;20033;-83
2022/01/29 02:53:46;;;;;;;25.70;14.27;;;;;;;4.82;93.55;102661.31;5016287;28;20053;-83
2022/01/29 02:56:12;;;;;;;25.33;13.73;;;;;;;4.85;93.05;102652.81;5021950;28;20462;-83
2022/01/29 02:58:37;;;;;;;28.42;16.13;;;;;;;4.79;93.80;102650.88;5036330;28;20051;-83
2022/01/29 03:01:04;;;;;;;27.80;15.50;;;;;;;4.79;93.97;102641.50;5036452;28;20759;-83
2022/01/29 03:03:29;;;;;;;25.60;14.13;;;;;;;4.84;93.22;102653.66;5035485;28;20037;-83
2022/01/29 03:05:55;;;;;;;27.58;14.98;;;;;;;4.84;93.36;102656.22;5036330;28;20026;-83
2022/01/29 03:08:20;;;;;;;25.92;14.15;;;;;;;4.81;93.47;102645.81;5036500;28;20049;-83
2022/01/29 03:10:48;;;;;;;28.00;16.00;;;;;;;4.92;92.82;102644.53;5034750;28;20042;-83
2022/01/29 03:13:17;;;;;;;26.73;13.90;;;;;;;4.87;93.19;102646.94;5036476;28;20418;-83
2022/01/29 03:15:43;;;;;;;25.83;13.80;;;;;;;4.89;93.16;102639.25;5036193;28;20029;-83
2022/01/29 03:18:08;;;;;;;24.55;13.40;;;;;;;4.88;92.81;102638.41;5035231;28;20025;-83
2022/01/29 03:20:33;;;;;;;25.83;13.43;;;;;;;4.89;93.12;102629.84;5036017;28;20424;-83
2022/01/29 03:22:59;;;;;;;23.63;12.20;;;;;;;4.89;93.45;102631.53;5036000;28;20026;-83
2022/01/29 03:25:25;;;;;;;26.10;14.20;;;;;;;4.97;93.21;102618.97;5035024;28;20092;-83
2022/01/29 03:27:50;;;;;;;26.50;14.45;;;;;;;4.89;93.73;102608.38;5035822;28;20025;-83
2022/01/29 03:30:15;;;;;;;25.90;13.68;;;;;;;4.90;93.34;102612.72;5035529;28;20488;-83
2022/01/29 03:32:42;;;;;;;24.48;13.02;;;;;;;4.90;93.51;102607.56;5035264;28;20025;-83
2022/01/29 03:35:08;;;;;;;24.33;13.07;;;;;;;4.98;93.13;102606.13;5035611;28;20018;-83
2022/01/29 03:37:33;;;;;;;28.40;16.27;;;;;;;4.94;93.49;102612.88;5035786;28;20036;-83
2022/01/29 03:40:02;;;;;;;27.38;14.93;;;;;;;4.93;94.10;102598.25;5034883;28;20029;-83
2022/01/29 03:42:34;;;;;;;26.77;14.82;;;;;;;4.94;94.08;102594.88;5035769;28;20028;-83
2022/01/29 03:45:00;;;;;;;27.55;14.80;;;;;;;4.97;93.79;102580.34;5035324;28;20037;-83
2022/01/29 03:47:25;;;;;;;28.50;15.93;;;;;;;4.93;93.94;102587.09;5035143;28;20025;-83
2022/01/29 03:49:50;;;;;;;28.60;14.80;;;;;;;4.95;93.98;102588.03;5035485;28;20036;-83
2022/01/29 03:52:16;;;;;;;30.42;16.13;;;;;;;4.95;94.39;102586.31;5033948;28;20045;-83
2022/01/29 03:54:43;;;;;;;26.42;13.80;;;;;;;4.95;94.25;102593.19;5035164;28;20025;-83
2022/01/29 03:57:08;;;;;;;28.73;15.50;;;;;;;4.95;94.58;102590.63;5034720;28;20041;-83
2022/01/29 03:59:33;;;;;;;27.00;14.57;;;;;;;4.97;94.71;102586.38;5034909;28;20025;-83
2022/01/29 04:01:58;;;;;;;28.23;15.25;;;;;;;4.96;94.46;102582.03;5035199;28;20484;-84
2022/01/29 04:04:24;;;;;;;26.15;13.48;;;;;;;4.98;94.37;102584.69;5035108;28;20032;-83
2022/01/29 04:06:50;;;;;;;22.83;11.80;;;;;;;4.99;94.31;102576.16;5033991;28;20512;-84
2022/01/29 04:09:17;;;;;;;24.08;11.98;;;;;;;5.00;94.53;102583.06;5035540;28;20099;-83
2022/01/29 04:11:43;;;;;;;26.30;13.60;;;;;;;5.00;94.65;102583.91;5035197;28;20025;-83
2022/01/29 04:14:17;;;;;;;25.27;13.05;;;;;;;5.03;94.51;102580.56;5034330;28;20148;-83
2022/01/29 04:16:46;;;;;;;25.83;13.70;;;;;;;5.06;94.45;102584.16;5034934;28;20037;-83
2022/01/29 04:19:12;;;;;;;26.88;14.05;;;;;;;5.07;94.39;102582.44;5035411;28;20029;-83
2022/01/29 04:21:38;;;;;;;24.33;12.35;;;;;;;5.06;94.18;102575.53;5034303;28;20151;-83
2022/01/29 04:24:04;;;;;;;24.70;12.85;;;;;;;5.07;93.85;102569.56;5034470;28;20095;-83
2022/01/29 04:26:34;;;;;;;26.02;13.48;;;;;;;5.08;94.12;102567.03;5035155;28;20441;-83
2022/01/29 04:29:03;;;;;;;25.70;13.38;;;;;;;5.08;94.45;102572.19;5034049;28;20109;-83
2022/01/29 04:31:37;;;;;;;23.92;12.52;;;;;;;5.10;94.41;102562.81;5035190;28;20369;-83
2022/01/29 04:34:03;;;;;;;24.50;12.88;;;;;;;5.07;94.49;102552.41;5034279;28;20037;-83
2022/01/29 04:36:28;;;;;;;24.13;11.88;;;;;;;5.12;94.14;102555.19;5034055;28;20022;-83
2022/01/29 04:38:53;;;;;;;23.63;12.13;;;;;;;5.16;93.99;102561.31;5034631;28;20044;-83
2022/01/29 04:41:21;;;;;;;23.98;12.07;;;;;;;5.12;94.18;102562.91;5034011;28;20026;-82
2022/01/29 04:43:47;;;;;;;26.48;13.00;;;;;;;5.18;94.37;102551.94;5034430;28;20508;-83
2022/01/29 04:46:12;;;;;;;26.88;14.85;;;;;;;5.17;94.39;102545.03;5031186;28;20038;-82
2022/01/29 04:48:37;;;;;;;26.25;13.88;;;;;;;5.16;94.81;102545.88;5034083;28;20021;-82
2022/01/29 04:51:03;;;;;;;24.35;12.68;;;;;;;5.21;94.92;102552.03;5033768;28;20083;-82
2022/01/29 04:53:28;;;;;;;26.75;13.52;;;;;;;5.21;95.11;102546.88;5034610;28;20033;-82
2022/01/29 04:55:53;;;;;;;23.45;12.18;;;;;;;5.24;94.61;102552.13;5033336;28;20040;-82
2022/01/29 04:58:19;;;;;;;25.27;13.52;;;;;;;5.24;95.38;102541.84;5034125;28;20405;-82
2022/01/29 05:00:44;;;;;;;26.13;13.80;;;;;;;5.28;94.65;102538.56;5034174;28;20051;-82
2022/01/29 05:03:14;;;;;;;27.10;14.15;;;;;;;5.31;94.99;102533.50;5032979;28;20477;-82
2022/01/29 05:05:40;;;;;;;26.50;14.20;;;;;;;5.32;95.23;102524.94;5034284;28;20028;-82
2022/01/29 05:08:06;;;;;;;27.02;14.30;;;;;;;5.36;94.24;102525.91;5033747;28;20029;-82
2022/01/29 05:10:32;;;;;;;25.67;13.27;;;;;;;5.35;94.98;102529.31;5033298;28;20354;-82
2022/01/29 05:13:07;;;;;;;27.10;15.13;;;;;;;5.39;94.72;102526.94;5033645;28;20021;-82
2022/01/29 05:16:02;;;;;;;25.08;13.55;;;;;;;5.35;94.71;102514.75;5034345;28;20026;-82
2022/01/29 05:26:58;;;;;;;26.17;13.57;;;;;;;5.43;95.44;102509.88;5034321;28;20044;-82
2022/01/29 05:29:26;;;;;;;28.95;15.85;;;;;;;5.45;95.20;102508.22;5033631;28;20041;-82
2022/01/29 05:31:52;;;;;;;26.30;14.63;;;;;;;5.46;95.35;102509.94;5032926;28;20028;-82
2022/01/29 05:34:19;;;;;;;25.38;13.40;;;;;;;5.47;94.92;102513.41;5033803;28;20025;-83
2022/01/29 05:36:45;;;;;;;26.52;14.38;;;;;;;5.50;95.60;102518.69;5033527;28;20375;-83
2022/01/29 05:39:10;;;;;;;26.77;14.68;;;;;;;5.51;95.26;102515.28;5032805;28;20057;-83
2022/01/29 05:41:35;;;;;;;28.48;15.50;;;;;;;5.52;95.39;102509.28;5033812;28;20029;-83
2022/01/29 05:44:01;;;;;;;26.48;13.70;;;;;;;5.53;95.85;102508.44;5033202;28;20108;-82
2022/01/29 05:46:26;;;;;;;27.02;14.32;;;;;;;5.50;95.29;102504.09;5033041;28;20025;-82
2022/01/29 05:48:51;;;;;;;28.77;15.57;;;;;;;5.55;95.92;102502.56;5033141;28;20096;-82
2022/01/29 05:51:16;;;;;;;28.50;15.45;;;;;;;5.56;96.19;102494.00;5033341;28;20076;-82
2022/01/29 05:53:42;;;;;;;28.60;15.35;;;;;;;5.57;96.17;102503.44;5032888;28;20028;-82
2022/01/29 05:56:07;;;;;;;27.55;15.07;;;;;;;5.59;95.81;102500.94;5033009;28;20021;-82
2022/01/29 05:58:33;;;;;;;28.30;15.98;;;;;;;5.60;96.16;102500.13;5032516;28;20050;-82
2022/01/29 06:00:59;;;;;;;27.60;14.80;;;;;;;5.63;95.66;102491.59;5032132;28;20094;-83
2022/01/29 06:03:24;;;;;;;26.85;14.98;;;;;;;5.66;95.00;102497.72;5033158;28;20029;-82
2022/01/29 06:05:50;;;;;;;29.83;16.40;;;;;;;5.65;95.59;102477.94;5032073;28;20025;-83
2022/01/29 06:08:15;;;;;;;27.65;15.05;;;;;;;5.64;95.41;102478.75;5033321;28;20033;-82
2022/01/29 06:10:40;;;;;;;24.25;12.82;;;;;;;5.67;95.51;102486.59;5033407;28;20040;-82
2022/01/29 06:13:10;;;;;;;25.83;13.85;;;;;;;5.70;95.30;102490.97;5032281;28;20072;-82
2022/01/29 06:15:44;;;;;;;27.20;14.10;;;;;;;5.70;95.58;102480.66;5032219;28;20026;-82
2022/01/29 06:18:17;;;;;;;29.02;15.55;;;;;;;5.74;95.66;102477.34;5033210;28;20493;-83
2022/01/29 06:20:43;;;;;;;31.90;18.75;;;;;;;5.75;96.17;102478.22;5032336;28;20032;-83
2022/01/29 06:23:10;;;;;;;30.15;17.38;;;;;;;5.76;96.30;102475.72;5014782;28;20037;-83
2022/01/29 06:25:35;;;;;;;;;;;;;;;5.77;96.19;102477.47;5032981;28;20079;-82
2022/01/29 06:28:00;;;;;;;32.57;18.47;;;;;;;5.81;95.58;102479.28;5032134;28;19909;-83
2022/01/29 06:30:26;;;;;;;28.35;16.05;;;;;;;5.82;95.91;102472.44;5032746;28;20021;-82
2022/01/29 06:32:51;;;;;;;30.60;17.65;;;;;;;5.81;96.47;102479.28;5032620;28;20408;-82
2022/01/29 06:35:16;;;;;;;29.63;17.02;;;;;;;5.88;95.32;102477.78;5031810;28;20026;-83
2022/01/29 06:37:41;;;;;;;29.85;16.88;;;;;;;5.90;95.35;102470.13;5032956;28;20370;-82
2022/01/29 06:40:08;;;;;;;29.63;17.25;;;;;;;5.88;95.69;102480.34;5032588;28;20021;-83
2022/01/29 06:42:36;;;;;;;29.85;17.67;;;;;;;5.90;96.15;102462.38;5031839;28;20083;-84
2022/01/29 06:45:03;;;;;;;28.58;16.63;;;;;;;5.92;95.95;102465.84;5032632;28;20029;-81
2022/01/29 06:47:28;;;;;;;31.83;18.90;;;;;;;5.96;95.65;102466.03;5032703;28;20041;-81
2022/01/29 06:49:53;;;;;;;31.48;19.13;;;;;;;6.00;95.32;102454.13;5031704;28;20280;-81
2022/01/29 06:52:19;;;;;;;31.25;18.98;;;;;;;6.00;95.86;102452.41;5032457;28;20060;-81
2022/01/29 06:54:44;;;;;;;30.52;17.88;;;;;;;6.00;95.78;102452.41;5032056;28;20056;-81
2022/01/29 06:57:09;;;;;;;30.02;18.42;;;;;;;6.02;95.53;102448.19;5031712;28;20053;-81
2022/01/29 06:59:35;;;;;;;28.42;16.08;;;;;;;6.05;95.60;102442.22;5032691;28;20034;-81
2022/01/29 07:02:00;;;;;;;28.02;16.52;;;;;;;6.05;96.19;102439.66;5031691;28;20021;-81
2022/01/29 07:04:25;;;;;;;29.75;17.08;;;;;;;6.07;95.92;102438.00;5032665;28;20032;-81
2022/01/29 07:06:50;;;;;;;26.58;15.82;;;;;;;6.08;95.98;102436.31;5032483;28;20377;-81
2022/01/29 07:09:16;;;;;;;27.88;16.40;;;;;;;6.12;95.85;102443.28;5031395;28;20038;-80
2022/01/29 07:11:43;;;;;;;28.92;16.63;;;;;;;6.13;95.89;102440.78;5032249;28;20038;-81
2022/01/29 07:14:15;;;;;;;28.70;16.65;;;;;;;6.16;95.94;102432.25;5032653;28;20371;-80
2022/01/29 07:16:40;;;;;;;27.67;16.33;;;;;;;6.19;96.10;102434.91;5031927;28;20065;-80
2022/01/29 07:19:08;;;;;;;26.02;14.70;;;;;;;6.20;95.83;102435.78;5031785;28;20064;-83
2022/01/29 07:21:33;;;;;;;24.98;13.43;;;;;;;6.21;96.12;102432.38;5032225;28;20033;-82
2022/01/29 07:23:58;;;;;;;23.98;13.15;;;;;;;6.20;95.65;102426.31;5031151;28;20021;-82
2022/01/29 07:26:24;;;;;;;26.73;15.45;;;;;;;6.22;95.90;102437.56;5033057;28;20386;-82
2022/01/29 07:28:49;;;;;;;29.50;17.35;;;;;;;6.25;95.50;102424.75;5035896;28;20079;-83
2022/01/29 07:31:15;;;;;;;32.33;18.87;;;;;;;6.26;96.43;102431.66;5035718;28;20030;-83
2022/01/29 07:33:40;;;;;;;28.17;16.30;;;;;;;6.28;96.08;102429.13;5035698;28;20032;-82
2022/01/29 07:36:05;;;;;;;27.88;16.05;;;;;;;6.28;96.31;102439.44;5034980;28;20474;-82
2022/01/29 07:38:46;;;;;;;27.23;15.80;;;;;;;6.29;96.35;102436.94;5034975;28;20029;-82
2022/01/29 07:41:11;;;;;;;27.48;16.45;;;;;;;6.28;96.51;102431.69;5034643;28;20493;-82
2022/01/29 07:43:37;;;;;;;26.55;15.27;;;;;;;6.32;96.08;102426.66;5035788;28;20037;-82
2022/01/29 07:46:02;;;;;;;26.52;15.13;;;;;;;6.33;96.36;102431.00;5034335;28;20025;-82
2022/01/29 07:48:27;;;;;;;28.40;16.88;;;;;;;6.38;96.08;102425.97;5035880;28;20033;-82
2022/01/29 07:50:53;;;;;;;27.10;15.38;;;;;;;6.37;96.53;102424.22;5035037;28;20542;-82
2022/01/29 07:53:18;;;;;;;26.33;15.77;;;;;;;6.38;96.50;102420.81;5034629;28;20025;-82
2022/01/29 07:55:43;;;;;;;26.17;14.93;;;;;;;6.39;96.42;102422.56;5035441;28;20052;-82
2022/01/29 07:58:10;;;;;;;25.13;14.40;;;;;;;6.40;96.33;102426.88;5035359;28;20087;-82
2022/01/29 08:00:35;;;;;;;26.08;15.27;;;;;;;6.43;96.05;102423.50;5034684;28;20033;-82
2022/01/29 08:03:01;;;;;;;24.67;13.98;;;;;;;6.43;96.23;102401.19;5034944;28;20458;-82
2022/01/29 08:05:26;;;;;;;24.55;14.10;;;;;;;6.45;96.18;102408.97;5034842;28;20029;-82
2022/01/29 08:07:51;;;;;;;24.67;13.85;;;;;;;6.48;96.84;102401.31;5035236;28;20021;-82
2022/01/29 08:10:17;;;;;;;27.58;16.88;;;;;;;6.52;96.96;102403.16;5035744;28;20025;-82
2022/01/29 08:12:42;;;;;;;26.92;16.17;;;;;;;6.54;96.89;102406.63;5034388;28;20035;-82
2022/01/29 08:15:08;;;;;;;26.48;15.25;;;;;;;6.54;96.97;102406.63;5035294;28;20025;-82
2022/01/29 08:17:34;;;;;;;25.95;15.05;;;;;;;6.58;97.32;102408.47;5034415;28;20462;-82
2022/01/29 08:19:59;;;;;;;24.92;14.65;;;;;;;6.60;96.89;102401.63;5034214;28;20116;-80
2022/01/29 08:22:25;;;;;;;26.60;15.23;;;;;;;6.61;97.13;102393.06;5034620;28;20108;-80
2022/01/29 08:24:52;;;;;;;24.65;14.55;;;;;;;6.67;97.07;102391.47;5035073;28;20116;-82
2022/01/29 08:27:17;;;;;;;;;;;;;;;6.70;97.34;102391.56;5034653;28;20495;-82
2022/01/29 08:29:42;;;;;;;26.67;15.83;;;;;;;6.72;97.22;102387.31;5034291;28;19917;-82
2022/01/29 08:32:08;;;;;;;25.73;15.55;;;;;;;6.75;96.83;102387.41;5034339;28;20386;-82
2022/01/29 08:34:34;;;;;;;24.95;14.73;;;;;;;6.78;96.94;102390.03;5033666;28;20091;-82
2022/01/29 08:37:02;;;;;;;23.90;13.82;;;;;;;6.77;97.11;102375.38;5034196;28;20047;-82
2022/01/29 08:39:28;;;;;;;25.10;14.90;;;;;;;6.85;96.98;102380.75;5031463;28;20366;-82
2022/01/29 08:41:53;;;;;;;25.13;15.35;;;;;;;6.88;97.35;102371.38;5033838;28;20032;-82
2022/01/29 08:44:19;;;;;;;28.13;17.38;;;;;;;6.92;97.11;102375.78;5033835;28;20029;-82
2022/01/29 08:46:44;;;;;;;25.53;15.90;;;;;;;6.94;96.86;102370.63;5034599;28;20029;-82
2022/01/29 08:49:10;;;;;;;27.55;16.45;;;;;;;7.00;96.63;102369.91;5033730;28;20057;-82
2022/01/29 08:51:35;;;;;;;27.03;16.50;;;;;;;7.02;96.57;102369.13;5034219;28;20057;-82
2022/01/29 08:54:01;;;;;;;25.75;15.93;;;;;;;7.03;96.75;102367.41;5034507;28;20052;-82
2022/01/29 08:56:26;;;;;;;25.20;15.25;;;;;;;7.06;96.31;102365.78;5033726;28;20083;-82
2022/01/29 08:58:52;;;;;;;25.77;15.80;;;;;;;7.07;96.54;102361.50;5034275;28;20026;-82
2022/01/29 09:01:17;;;;;;;26.33;16.27;;;;;;;7.09;96.56;102367.59;5034250;28;20028;-82
2022/01/29 09:03:43;;;;;;;25.13;15.70;;;;;;;7.10;96.44;102364.13;5033179;28;20032;-82
2022/01/29 09:06:08;;;;;;;25.57;15.67;;;;;;;7.09;96.62;102357.25;5034330;28;20021;-82
2022/01/29 09:08:34;;;;;;;26.07;15.10;;;;;;;7.15;95.85;102357.38;5033405;28;20497;-82
2022/01/29 09:10:59;;;;;;;24.70;14.93;;;;;;;7.13;95.95;102359.06;5034112;28;20103;-82
2022/01/29 09:13:26;;;;;;;25.20;15.30;;;;;;;7.17;96.34;102345.38;5034375;28;20123;-82
2022/01/29 09:15:54;;;;;;;27.23;17.30;;;;;;;7.21;96.43;102346.31;5033120;28;20482;-82
2022/01/29 09:18:26;;;;;;;26.15;15.93;;;;;;;7.28;95.88;102347.34;5033803;28;20636;-82
2022/01/29 09:20:52;;;;;;;26.77;16.33;;;;;;;7.30;95.86;102350.84;5033456;28;20029;-82
2022/01/29 09:23:18;;;;;;;25.60;15.90;;;;;;;7.34;95.65;102344.88;5033269;28;20021;-80
2022/01/29 09:25:46;;;;;;;25.13;16.00;;;;;;;7.34;95.82;102343.19;5034161;28;20028;-81
2022/01/29 09:28:15;;;;;;;24.48;15.10;;;;;;;7.36;95.90;102338.03;5033916;28;20355;-81
2022/01/29 09:30:42;;;;;;;25.77;16.00;;;;;;;7.38;96.29;102341.53;5032960;28;20362;-81
2022/01/29 09:33:08;;;;;;;26.67;16.85;;;;;;;7.41;96.07;102341.63;5033011;28;20056;-81
2022/01/29 09:35:34;;;;;;;25.20;15.53;;;;;;;7.44;95.92;102351.13;5033841;28;20478;-81
2022/01/29 09:37:59;;;;;;;26.00;16.20;;;;;;;7.47;95.54;102346.91;5032246;28;20025;-81
2022/01/29 09:40:27;;;;;;;27.00;17.17;;;;;;;7.50;95.57;102349.56;5034064;28;20108;-81
2022/01/29 09:43:07;;;;;;;25.05;15.80;;;;;;;7.52;95.76;102347.88;5033406;28;20067;-81
2022/01/29 09:45:33;;;;;;;26.00;16.48;;;;;;;7.54;95.47;102345.31;5032783;28;20041;-81
2022/01/29 09:48:04;;;;;;;25.70;16.30;;;;;;;7.63;95.29;102344.66;5033073;28;20017;-81
2022/01/29 09:50:40;;;;;;;26.83;16.40;;;;;;;7.60;95.47;102345.44;5032024;28;20112;-81
2022/01/29 09:53:07;;;;;;;27.10;17.13;;;;;;;7.66;95.21;102357.63;5029533;28;20048;-81
2022/01/29 09:55:32;;;;;;;26.77;17.42;;;;;;;7.70;95.32;102351.69;5033317;28;20068;-81
2022/01/29 09:57:59;;;;;;;25.15;15.40;;;;;;;7.71;95.22;102354.28;5032130;28;20116;-81
2022/01/29 10:00:25;;;;;;;25.20;15.93;;;;;;;7.75;94.85;102352.66;5032867;28;20285;-81
2022/01/29 10:03:10;;;;;;;22.92;13.80;;;;;;;7.76;94.82;102349.25;5033070;28;20109;-82
2022/01/29 10:05:41;;;;;;;24.42;14.38;;;;;;;7.77;94.88;102350.97;5018054;28;20112;-81
2022/01/29 10:08:07;;;;;;;23.00;14.32;;;;;;;7.83;94.80;102350.22;5032865;28;20075;-81
2022/01/29 10:10:47;;;;;;;23.35;14.52;;;;;;;7.85;94.74;102343.38;5032913;28;20056;-81
2022/01/29 10:13:25;;;;;;;22.80;14.48;;;;;;;7.91;94.21;102348.69;5031660;28;20038;-81
2022/01/29 10:15:52;;;;;;;22.88;13.27;;;;;;;7.91;94.39;102342.63;5033068;28;20417;-81
2022/01/29 10:18:21;;;;;;;23.58;14.15;;;;;;;7.95;94.17;102347.03;5033336;28;20025;-83
2022/01/29 10:20:47;;;;;;;23.83;15.32;;;;;;;7.98;93.84;102334.16;5032056;28;20031;-83
2022/01/29 10:23:12;;;;;;;23.03;14.13;;;;;;;8.02;94.10;102335.94;5032793;28;20112;-83
2022/01/29 10:25:41;;;;;;;23.43;14.13;;;;;;;8.08;93.51;102337.78;5033155;28;20037;-82
2022/01/29 10:28:18;;;;;;;22.17;13.55;;;;;;;8.12;93.37;102324.94;5031873;28;20101;-82
2022/01/29 10:30:49;;;;;;;23.55;14.90;;;;;;;8.16;93.21;102320.72;5028087;28;20033;-82
2022/01/29 10:33:19;;;;;;;22.30;13.98;;;;;;;8.20;93.40;102312.16;5031377;28;20482;-82
2022/01/29 10:35:50;;;;;;;22.00;13.82;;;;;;;8.25;93.17;102307.06;5012873;28;20026;-82
2022/01/29 10:38:41;;;;;;;23.17;14.30;;;;;;;8.32;93.01;102298.59;5019777;28;20024;-82
2022/01/29 10:41:09;;;;;;;23.25;14.65;;;;;;;8.35;92.80;102294.34;5021215;28;20045;-82
2022/01/29 10:43:34;;;;;;;22.05;13.73;;;;;;;8.39;92.70;102295.25;5032569;28;20025;-83
2022/01/29 10:46:00;;;;;;;22.13;13.80;;;;;;;8.42;92.41;102303.06;5032420;28;20021;-83
2022/01/29 10:48:42;;;;;;;22.73;14.20;;;;;;;8.45;92.01;102276.38;5032217;28;20030;-82
2022/01/29 10:51:13;;;;;;;22.13;13.80;;;;;;;8.50;91.73;102285.09;5032700;28;20021;-82
2022/01/29 10:53:39;;;;;;;19.80;11.82;;;;;;;8.54;91.86;102288.63;5032706;28;20458;-83
2022/01/29 10:56:04;;;;;;;20.87;12.30;;;;;;;8.54;91.86;102281.72;5031755;28;20029;-82
2022/01/29 10:58:38;;;;;;;19.43;11.20;;;;;;;8.57;91.40;102281.78;5032438;28;20120;-82
2022/01/29 11:01:23;;;;;;;19.38;11.80;;;;;;;8.59;91.10;102292.16;5029593;28;20493;-82
2022/01/29 11:03:52;;;;;;;20.23;12.43;;;;;;;8.69;90.36;102282.81;5035855;28;20367;-82
2022/01/29 11:06:20;;;;;;;19.38;11.48;;;;;;;8.70;90.55;102275.06;5036387;28;20021;-82
2022/01/29 11:08:45;;;;;;;19.38;11.00;;;;;;;8.71;90.06;102279.41;5035548;28;20033;-82
2022/01/29 11:11:12;;;;;;;18.17;10.67;;;;;;;8.75;89.98;102269.97;5036239;28;20025;-83
2022/01/29 11:13:38;;;;;;;17.30;9.70;;;;;;;8.75;89.98;102270.84;5036110;28;20462;-83
2022/01/29 11:16:05;;;;;;;17.23;9.90;;;;;;;8.80;89.73;102270.91;5035487;28;20025;-82
2022/01/29 11:18:33;;;;;;;18.92;10.25;;;;;;;8.81;89.59;102267.47;5036389;28;20039;-82
2022/01/29 11:21:01;;;;;;;16.80;9.20;;;;;;;8.80;89.81;102257.97;5035938;28;20017;-82
2022/01/29 11:23:28;;;;;;;17.65;9.80;;;;;;;8.81;88.67;102255.41;5035176;28;20022;-83
2022/01/29 11:25:55;;;;;;;17.30;9.43;;;;;;;8.83;89.48;102241.59;5035810;28;20029;-83
2022/01/29 11:28:28;;;;;;;15.07;8.32;;;;;;;8.85;89.58;102252.84;5035287;28;20425;-82